Time;durP1;ratioP1;P1;durP2;ratioP2;P2;SDS_P1;SDS_P2;PMS_P1;PMS_P2;Temp;Humidity;BMP_temperature;BMP_pressure;BME280_temperature;BME280_humidity;BME280_pressure;Samples;Min_cycle;Max_cycle;Signal;HPM_P1;HPM_P2
2023/05/28 00:01:49;;;;;;;;;;;12.40;99.90;;;;;;5052812;28;19921;-66
2023/05/28 00:04:16;;;;;;;;;;;12.40;99.90;;;;;;5045037;28;19920;-66
2023/05/28 00:06:41;;;;;;;;;;;12.30;99.90;;;;;;5045779;28;20706;-66
2023/05/28 00:09:07;;;;;;;;;;;12.30;99.90;;;;;;5061577;28;19921;-66
2023/05/28 00:11:33;;;;;;;;;;;12.30;99.90;;;;;;5071586;28;19920;-66
2023/05/28 00:13:58;;;;;;;;;;;12.20;99.90;;;;;;5066481;28;19921;-66
2023/05/28 00:16:25;;;;;;;;;;;12.20;99.90;;;;;;5061672;28;20363;-66
2023/05/28 00:18:50;;;;;;;;;;;12.10;99.90;;;;;;5061466;28;19927;-66
2023/05/28 00:21:16;;;;;;;;;;;12.00;99.90;;;;;;5049691;28;19924;-66
2023/05/28 00:23:41;;;;;;;;;;;12.00;99.90;;;;;;5069137;28;20294;-65
2023/05/28 00:26:07;;;;;;;;;;;11.90;99.90;;;;;;5047104;28;19921;-66
2023/05/28 00:28:32;;;;;;;;;;;12.00;99.90;;;;;;5073493;28;20430;-67
2023/05/28 00:30:58;;;;;;;;;;;11.90;99.90;;;;;;5083647;28;19920;-65
2023/05/28 00:33:23;;;;;;;;;;;11.90;99.90;;;;;;5057265;28;19920;-65
2023/05/28 00:35:54;;;;;;;;;;;11.90;99.90;;;;;;5078270;28;19927;-66
2023/05/28 00:38:20;;;;;;;;;;;11.90;99.90;;;;;;5067669;28;19921;-68
2023/05/28 00:40:45;;;;;;;;;;;11.90;99.90;;;;;;5067834;28;20432;-68
2023/05/28 00:43:11;;;;;;;;;;;11.90;99.90;;;;;;5064927;28;19920;-68
2023/05/28 00:45:36;;;;;;;;;;;11.80;99.90;;;;;;5055443;28;19924;-68
2023/05/28 00:48:02;;;;;;;;;;;11.80;99.90;;;;;;5065505;28;19933;-68
2023/05/28 00:50:28;;;;;;;;;;;11.70;99.90;;;;;;5054499;28;19932;-67
2023/05/28 00:52:54;;;;;;;;;;;11.60;99.90;;;;;;5064532;28;19921;-67
2023/05/28 00:55:20;;;;;;;;;;;11.60;99.90;;;;;;5063955;28;20326;-68
2023/05/28 00:57:46;;;;;;;;;;;11.50;99.90;;;;;;5061693;28;19929;-68
2023/05/28 01:00:13;;;;;;;;;;;11.40;99.90;;;;;;5055229;28;19928;-68
2023/05/28 01:02:39;;;;;;;;;;;11.50;99.90;;;;;;5061594;28;19928;-66
2023/05/28 01:05:05;;;;;;;;;;;11.40;99.90;;;;;;5050900;28;19950;-68
2023/05/28 01:07:31;;;;;;;;;;;11.40;99.90;;;;;;5053357;28;19967;-66
2023/05/28 01:09:56;;;;;;;;;;;11.40;99.90;;;;;;5072914;28;19924;-66
2023/05/28 01:12:23;;;;;;;;;;;11.40;99.90;;;;;;5069265;28;19920;-66
2023/05/28 01:14:49;;;;;;;;;;;11.50;99.90;;;;;;5056438;28;20382;-66
2023/05/28 01:17:15;;;;;;;;;;;11.40;99.90;;;;;;5064150;28;19921;-67
2023/05/28 01:19:42;;;;;;;;;;;11.30;99.90;;;;;;5072072;28;20016;-66
2023/05/28 01:22:08;;;;;;;;;;;11.40;99.90;;;;;;5061688;28;20294;-68
2023/05/28 01:24:35;;;;;;;;;;;11.20;99.90;;;;;;5062594;28;19943;-68
2023/05/28 01:27:02;;;;;;;;;;;11.10;99.90;;;;;;5065548;28;19920;-68
2023/05/28 01:29:27;;;;;;;;;;;11.00;99.90;;;;;;5059957;28;20302;-68
2023/05/28 01:31:53;;;;;;;;;;;10.90;99.90;;;;;;5048382;28;20409;-67
2023/05/28 01:34:18;;;;;;;;;;;10.80;99.90;;;;;;5050073;28;19932;-65
2023/05/28 01:36:51;;;;;;;;;;;10.60;99.90;;;;;;5071543;28;20307;-68
2023/05/28 01:39:19;;;;;;;;;;;10.60;99.90;;;;;;5054413;28;20042;-68
2023/05/28 01:41:45;;;;;;;;;;;10.70;99.90;;;;;;5068227;28;19924;-68
2023/05/28 01:44:12;;;;;;;;;;;10.60;99.90;;;;;;5066372;28;20271;-67
2023/05/28 01:46:39;;;;;;;;;;;10.60;99.90;;;;;;5058208;28;20286;-66
2023/05/28 01:49:04;;;;;;;;;;;10.60;99.90;;;;;;5060421;28;19927;-66
2023/05/28 01:51:31;;;;;;;;;;;10.60;99.90;;;;;;5069315;28;19920;-66
2023/05/28 01:53:56;;;;;;;;;;;10.60;99.90;;;;;;5063411;28;19920;-66
2023/05/28 01:56:22;;;;;;;;;;;10.70;99.90;;;;;;5062771;28;20327;-66
2023/05/28 01:58:47;;;;;;;;;;;10.70;99.90;;;;;;5063262;28;19921;-66
2023/05/28 02:01:29;;;;;;;;;;;10.70;99.90;;;;;;5071681;28;19925;-68
2023/05/28 02:03:58;;;;;;;;;;;10.70;99.90;;;;;;5052724;28;20004;-68
2023/05/28 02:06:24;;;;;;;;;;;10.70;99.90;;;;;;5060006;28;19974;-68
2023/05/28 02:08:51;;;;;;;;;;;10.70;99.90;;;;;;5071640;28;19974;-66
2023/05/28 02:11:16;;;;;;;;;;;10.70;99.90;;;;;;5062006;28;20031;-67
2023/05/28 02:13:42;;;;;;;;;;;10.70;99.90;;;;;;5064100;28;20006;-68
2023/05/28 02:16:07;;;;;;;;;;;10.70;99.90;;;;;;5065953;28;20324;-68
2023/05/28 02:18:36;;;;;;;;;;;10.70;99.90;;;;;;5059653;28;19925;-65
2023/05/28 02:21:01;;;;;;;;;;;10.70;99.90;;;;;;5047182;28;19932;-66
2023/05/28 02:23:27;;;;;;;;;;;10.70;99.90;;;;;;5062985;28;19928;-66
2023/05/28 02:25:52;;;;;;;;;;;10.80;99.90;;;;;;5071977;28;19920;-68
2023/05/28 02:28:18;;;;;;;;;;;10.80;99.90;;;;;;5061548;28;19920;-68
2023/05/28 02:30:43;;;;;;;;;;;10.90;99.90;;;;;;5043903;28;19931;-67
2023/05/28 02:33:09;;;;;;;;;;;10.80;99.90;;;;;;5057233;28;19921;-67
2023/05/28 02:35:34;;;;;;;;;;;10.80;99.90;;;;;;5050615;28;20424;-67
2023/05/28 02:38:00;;;;;;;;;;;10.80;99.90;;;;;;5061574;28;19974;-68
2023/05/28 02:40:25;;;;;;;;;;;10.80;99.90;;;;;;5044920;28;19930;-68
2023/05/28 02:42:51;;;;;;;;;;;10.80;99.90;;;;;;5071694;28;19924;-68
2023/05/28 02:45:16;;;;;;;;;;;10.80;99.90;;;;;;5068690;28;20277;-67
2023/05/28 02:47:42;;;;;;;;;;;10.80;99.90;;;;;;5046244;28;20031;-68
2023/05/28 02:50:08;;;;;;;;;;;10.90;99.90;;;;;;5066996;28;19932;-66
2023/05/28 02:52:33;;;;;;;;;;;10.90;99.90;;;;;;5046076;28;19925;-66
2023/05/28 02:54:59;;;;;;;;;;;10.80;99.90;;;;;;5060631;28;20381;-66
2023/05/28 02:57:24;;;;;;;;;;;10.90;99.90;;;;;;5057117;28;19926;-67
2023/05/28 02:59:50;;;;;;;;;;;10.90;99.90;;;;;;5066640;28;19932;-67
2023/05/28 03:02:15;;;;;;;;;;;10.90;99.90;;;;;;5058103;28;19925;-68
2023/05/28 03:04:41;;;;;;;;;;;10.90;99.90;;;;;;5055136;28;19925;-68
2023/05/28 03:07:06;;;;;;;;;;;10.90;99.90;;;;;;5042795;28;19938;-68
2023/05/28 03:09:32;;;;;;;;;;;10.90;99.90;;;;;;5038932;28;19931;-68
2023/05/28 03:11:57;;;;;;;;;;;10.90;99.90;;;;;;5048139;28;19974;-66
2023/05/28 03:14:23;;;;;;;;;;;10.90;99.90;;;;;;5071390;28;20000;-66
2023/05/28 03:16:48;;;;;;;;;;;10.90;99.90;;;;;;5074540;28;19974;-66
2023/05/28 03:19:14;;;;;;;;;;;11.00;99.90;;;;;;5068434;28;19935;-66
2023/05/28 03:21:40;;;;;;;;;;;11.00;99.90;;;;;;5065623;28;19927;-66
2023/05/28 03:24:05;;;;;;;;;;;11.00;99.90;;;;;;5061309;28;20386;-66
2023/05/28 03:26:31;;;;;;;;;;;11.00;99.90;;;;;;5057743;28;19983;-67
2023/05/28 03:28:56;;;;;;;;;;;11.00;99.90;;;;;;5064980;28;19936;-67
2023/05/28 03:31:29;;;;;;;;;;;11.00;99.90;;;;;;5070842;28;19920;-68
2023/05/28 03:33:55;;;;;;;;;;;11.00;99.90;;;;;;5075033;28;20267;-67
2023/05/28 03:36:22;;;;;;;;;;;11.00;99.90;;;;;;5059942;28;20367;-66
2023/05/28 03:38:47;;;;;;;;;;;11.00;99.90;;;;;;5065089;28;19935;-66
2023/05/28 03:41:12;;;;;;;;;;;11.00;99.90;;;;;;5074240;28;19928;-66
2023/05/28 03:43:38;;;;;;;;;;;11.00;99.90;;;;;;5060564;28;19920;-66
2023/05/28 03:46:03;;;;;;;;;;;11.00;99.90;;;;;;5062585;28;19925;-66
2023/05/28 03:48:29;;;;;;;;;;;11.00;99.90;;;;;;5071039;28;20007;-66
2023/05/28 03:50:55;;;;;;;;;;;11.00;99.90;;;;;;5071853;28;19920;-66
2023/05/28 03:53:21;;;;;;;;;;;11.00;99.90;;;;;;5095080;22;19924;-67
2023/05/28 03:55:46;;;;;;;;;;;11.00;99.90;;;;;;5105473;28;19934;-68
2023/05/28 03:58:14;;;;;;;;;;;11.00;99.90;;;;;;5109974;28;19946;-68
2023/05/28 04:00:40;;;;;;;;;;;11.00;99.90;;;;;;5091472;28;20280;-67
2023/05/28 04:03:05;;;;;;;;;;;11.00;99.90;;;;;;5075203;28;19926;-67
2023/05/28 04:05:33;;;;;;;;;;;11.00;99.90;;;;;;5088083;28;19926;-68
2023/05/28 04:07:59;;;;;;;;;;;11.00;99.90;;;;;;5083309;28;19978;-67
2023/05/28 04:10:24;;;;;;;;;;;11.00;99.90;;;;;;5076605;28;19928;-67
2023/05/28 04:12:50;;;;;;;;;;;11.00;99.90;;;;;;5085241;28;20285;-67
2023/05/28 04:15:16;;;;;;;;;;;11.10;99.90;;;;;;5083581;28;20377;-68
2023/05/28 04:17:41;;;;;;;;;;;11.10;99.90;;;;;;5081475;28;19935;-68
2023/05/28 04:20:07;;;;;;;;;;;11.10;99.90;;;;;;5093805;28;19928;-67
2023/05/28 04:22:33;;;;;;;;;;;11.10;99.90;;;;;;5094114;28;19920;-67
2023/05/28 04:24:59;;;;;;;;;;;11.10;99.90;;;;;;5084191;28;20435;-67
2023/05/28 04:27:24;;;;;;;;;;;11.20;99.90;;;;;;5084011;28;19927;-67
2023/05/28 04:29:52;;;;;;;;;;;11.20;99.90;;;;;;5093724;28;20296;-67
2023/05/28 04:32:17;;;;;;;;;;;11.20;99.90;;;;;;5080824;28;19928;-68
2023/05/28 04:34:43;;;;;;;;;;;11.20;99.90;;;;;;5082549;28;19920;-68
2023/05/28 04:37:08;;;;;;;;;;;11.20;99.90;;;;;;5092114;28;19967;-67
2023/05/28 04:39:34;;;;;;;;;;;11.20;99.90;;;;;;5093204;28;19924;-68
2023/05/28 04:42:03;;;;;;;;;;;11.20;99.90;;;;;;5077663;28;20018;-68
2023/05/28 04:44:30;;;;;;;;;;;11.30;99.90;;;;;;5081767;28;19921;-67
2023/05/28 04:46:58;;;;;;;;;;;11.20;99.90;;;;;;5093676;28;19927;-68
2023/05/28 04:49:24;;;;;;;;;;;11.30;99.90;;;;;;5064450;28;20516;-67
2023/05/28 04:51:50;;;;;;;;;;;11.30;99.90;;;;;;5084665;28;19920;-67
2023/05/28 04:54:15;;;;;;;;;;;11.30;99.90;;;;;;5092641;28;19924;-67
2023/05/28 04:56:41;;;;;;;;;;;11.30;99.90;;;;;;5088570;28;19985;-67
2023/05/28 04:59:09;;;;;;;;;;;11.30;99.90;;;;;;5084698;28;19927;-67
2023/05/28 05:01:39;;;;;;;;;;;11.30;99.90;;;;;;5092677;28;19927;-68
2023/05/28 05:04:05;;;;;;;;;;;11.40;99.90;;;;;;5083679;28;19923;-68
2023/05/28 05:06:31;;;;;;;;;;;11.40;99.90;;;;;;5073426;28;19973;-68
2023/05/28 05:08:56;;;;;;;;;;;11.50;99.90;;;;;;5070890;28;19973;-67
2023/05/28 05:11:22;;;;;;;;;;;11.50;99.90;;;;;;5068266;28;19920;-68
2023/05/28 05:13:47;;;;;;;;;;;11.60;99.90;;;;;;5074194;28;20420;-66
2023/05/28 05:16:13;;;;;;;;;;;11.70;99.90;;;;;;5068095;28;20709;-66
2023/05/28 05:18:39;;;;;;;;;;;11.70;99.90;;;;;;5068252;28;19974;-68
2023/05/28 05:21:04;;;;;;;;;;;11.90;99.90;;;;;;5069102;28;20015;-68
2023/05/28 05:23:30;;;;;;;;;;;12.00;99.90;;;;;;5067643;28;19924;-66
2023/05/28 05:25:55;;;;;;;;;;;12.20;99.90;;;;;;5073620;28;19920;-67
2023/05/28 05:28:21;;;;;;;;;;;12.30;99.90;;;;;;5065789;28;20429;-68
2023/05/28 05:30:47;;;;;;;;;;;12.40;99.90;;;;;;5068519;28;19928;-68
2023/05/28 05:33:12;;;;;;;;;;;12.50;99.90;;;;;;5071986;28;19979;-67
2023/05/28 05:35:38;;;;;;;;;;;12.60;99.90;;;;;;5081399;28;19924;-68
2023/05/28 05:38:03;;;;;;;;;;;12.60;99.90;;;;;;5083110;28;19969;-67
2023/05/28 05:40:29;;;;;;;;;;;12.70;99.90;;;;;;5065251;28;19932;-68
2023/05/28 05:42:54;;;;;;;;;;;12.80;99.90;;;;;;5077848;28;19920;-67
2023/05/28 05:45:20;;;;;;;;;;;12.90;99.90;;;;;;5087753;28;19927;-68
2023/05/28 05:47:46;;;;;;;;;;;13.00;99.90;;;;;;5080477;28;19925;-68
2023/05/28 05:50:12;;;;;;;;;;;13.00;99.90;;;;;;5085824;28;19968;-68
2023/05/28 05:52:38;;;;;;;;;;;13.10;99.90;;;;;;5077799;28;19982;-67
2023/05/28 05:55:03;;;;;;;;;;;13.10;99.90;;;;;;5067256;28;19960;-67
2023/05/28 05:57:29;;;;;;;;;;;13.20;99.90;;;;;;5068671;28;19924;-66
2023/05/28 05:59:54;;;;;;;;;;;13.20;99.90;;;;;;5062476;28;20306;-66
2023/05/28 06:02:20;;;;;;;;;;;13.30;99.90;;;;;;5072578;28;19978;-66
2023/05/28 06:04:45;;;;;;;;;;;13.40;99.90;;;;;;5065343;28;19981;-68
2023/05/28 06:07:11;;;;;;;;;;;13.50;99.90;;;;;;5067852;28;19924;-66
2023/05/28 06:09:36;;;;;;;;;;;13.60;99.90;;;;;;5072179;28;19983;-66
2023/05/28 06:12:02;;;;;;;;;;;13.70;99.90;;;;;;5078880;28;20034;-66
2023/05/28 06:14:28;;;;;;;;;;;13.80;99.90;;;;;;5077519;28;20011;-66
2023/05/28 06:16:53;;;;;;;;;;;14.00;99.90;;;;;;5070024;28;20011;-67
2023/05/28 06:19:19;;;;;;;;;;;14.00;99.90;;;;;;5070498;28;20305;-67
2023/05/28 06:21:45;;;;;;;;;;;14.10;99.90;;;;;;5065397;28;19924;-68
2023/05/28 06:24:10;;;;;;;;;;;14.20;99.90;;;;;;5061521;28;19928;-66
2023/05/28 06:26:36;;;;;;;;;;;14.40;99.90;;;;;;5081737;28;19924;-68
2023/05/28 06:29:01;;;;;;;;;;;14.40;99.90;;;;;;5071562;28;20394;-68
2023/05/28 06:31:27;;;;;;;;;;;14.50;99.90;;;;;;5060531;28;19920;-70
2023/05/28 06:33:53;;;;;;;;;;;14.60;99.90;;;;;;5080376;28;19924;-67
2023/05/28 06:36:18;;;;;;;;;;;14.60;99.90;;;;;;5078058;28;19931;-66
2023/05/28 06:38:44;;;;;;;;;;;14.70;99.90;;;;;;5054015;28;19928;-68
2023/05/28 06:41:09;;;;;;;;;;;14.80;99.90;;;;;;5079545;28;19931;-65
2023/05/28 06:43:38;;;;;;;;;;;14.90;99.90;;;;;;5081261;28;19924;-65
2023/05/28 06:46:03;;;;;;;;;;;15.00;99.90;;;;;;5072766;28;19932;-67
2023/05/28 06:48:29;;;;;;;;;;;15.10;99.90;;;;;;5057468;28;19920;-67
2023/05/28 06:50:56;;;;;;;;;;;15.10;99.90;;;;;;5082318;28;19920;-69
2023/05/28 06:53:21;;;;;;;;;;;15.10;99.90;;;;;;5073235;28;19927;-67
2023/05/28 06:55:47;;;;;;;;;;;15.10;99.90;;;;;;5083048;28;19924;-67
2023/05/28 06:58:12;;;;;;;;;;;15.00;99.90;;;;;;5085652;28;20278;-66
2023/05/28 07:00:38;;;;;;;;;;;15.10;99.90;;;;;;5091278;28;19932;-66
2023/05/28 07:03:03;;;;;;;;;;;15.10;99.90;;;;;;5076777;28;19920;-63
2023/05/28 07:05:29;;;;;;;;;;;15.20;99.90;;;;;;5064725;28;19920;-64
2023/05/28 07:07:55;;;;;;;;;;;15.20;99.90;;;;;;5091262;28;19920;-62
2023/05/28 07:10:20;;;;;;;;;;;15.20;99.90;;;;;;5076924;28;20294;-62
2023/05/28 07:12:46;;;;;;;;;;;15.20;99.90;;;;;;5083306;28;19927;-63
2023/05/28 07:15:11;;;;;;;;;;;15.30;99.90;;;;;;5091032;28;20381;-62
2023/05/28 07:17:37;;;;;;;;;;;15.40;99.90;;;;;;5084116;28;19973;-62
2023/05/28 07:20:05;;;;;;;;;;;15.50;99.90;;;;;;5083605;28;19931;-64
2023/05/28 07:22:31;;;;;;;;;;;15.60;99.90;;;;;;5091079;28;19959;-63
2023/05/28 07:24:56;;;;;;;;;;;15.80;99.90;;;;;;5072911;28;20357;-63
2023/05/28 07:27:21;;;;;;;;;;;15.90;99.90;;;;;;5087545;28;19920;-63
2023/05/28 07:29:47;;;;;;;;;;;16.00;99.90;;;;;;5071408;28;20400;-63
2023/05/28 07:32:12;;;;;;;;;;;16.10;99.90;;;;;;5074857;28;20003;-63
2023/05/28 07:34:39;;;;;;;;;;;16.20;99.90;;;;;;5088613;28;20267;-63
2023/05/28 07:37:04;;;;;;;;;;;16.30;99.90;;;;;;5064088;28;20027;-64
2023/05/28 07:39:30;;;;;;;;;;;16.40;99.90;;;;;;5090556;28;20022;-63
2023/05/28 07:41:55;;;;;;;;;;;16.60;99.90;;;;;;5094279;28;20558;-64
2023/05/28 07:44:21;;;;;;;;;;;16.70;99.90;;;;;;5079111;28;19930;-63
2023/05/28 07:46:46;;;;;;;;;;;16.80;99.90;;;;;;5069072;28;19986;-63
2023/05/28 07:49:12;;;;;;;;;;;16.90;99.90;;;;;;5089532;28;19943;-63
2023/05/28 07:51:38;;;;;;;;;;;17.00;99.90;;;;;;5094064;28;20405;-63
2023/05/28 07:54:03;;;;;;;;;;;17.10;99.90;;;;;;5082376;28;19973;-64
2023/05/28 07:56:29;;;;;;;;;;;17.10;99.90;;;;;;5090973;28;19927;-64
2023/05/28 07:58:55;;;;;;;;;;;17.20;99.90;;;;;;5094444;28;20390;-65
2023/05/28 08:01:21;;;;;;;;;;;17.20;99.90;;;;;;5089916;28;19928;-65
2023/05/28 08:03:51;;;;;;;;;;;17.30;99.90;;;;;;5075282;28;19935;-64
2023/05/28 08:06:17;;;;;;;;;;;17.20;99.90;;;;;;5091921;28;20014;-64
2023/05/28 08:08:43;;;;;;;;;;;17.30;99.90;;;;;;5079838;28;19928;-63
2023/05/28 08:11:10;;;;;;;;;;;17.40;99.90;;;;;;5068988;28;19934;-62
2023/05/28 08:13:36;;;;;;;;;;;17.50;99.90;;;;;;5082250;28;19924;-64
2023/05/28 08:16:02;;;;;;;;;;;17.60;99.90;;;;;;5084131;28;19928;-64
2023/05/28 08:18:28;;;;;;;;;;;17.60;99.90;;;;;;5072690;28;20386;-64
2023/05/28 08:20:53;;;;;;;;;;;17.60;99.90;;;;;;5093952;28;19930;-63
2023/05/28 08:23:19;;;;;;;;;;;17.60;99.90;;;;;;5094025;28;19974;-64
2023/05/28 08:25:45;;;;;;;;;;;17.70;99.90;;;;;;5087091;28;20408;-64
2023/05/28 08:28:10;;;;;;;;;;;17.80;99.90;;;;;;5085158;28;19920;-64
2023/05/28 08:30:36;;;;;;;;;;;17.80;99.90;;;;;;5075351;28;19920;-64
2023/05/28 08:33:01;;;;;;;;;;;17.90;99.90;;;;;;5093749;28;20017;-64
2023/05/28 08:35:27;;;;;;;;;;;18.10;99.90;;;;;;5085241;28;20394;-64
2023/05/28 08:37:52;;;;;;;;;;;18.10;99.90;;;;;;5091653;28;19920;-65
2023/05/28 08:40:18;;;;;;;;;;;18.20;99.90;;;;;;5093513;28;19928;-64
2023/05/28 08:42:44;;;;;;;;;;;18.20;99.90;;;;;;5090055;28;20313;-65
2023/05/28 08:45:10;;;;;;;;;;;18.30;99.90;;;;;;5074828;28;19920;-65
2023/05/28 08:47:36;;;;;;;;;;;18.40;99.90;;;;;;5092351;28;19920;-65
2023/05/28 08:50:06;;;;;;;;;;;18.40;99.90;;;;;;5090566;28;19927;-65
2023/05/28 08:52:32;;;;;;;;;;;18.50;99.90;;;;;;5089685;28;19919;-64
2023/05/28 08:54:58;;;;;;;;;;;18.50;99.90;;;;;;5087941;28;19927;-63
2023/05/28 08:57:24;;;;;;;;;;;18.50;99.90;;;;;;5084021;28;20378;-64
2023/05/28 08:59:50;;;;;;;;;;;18.50;99.90;;;;;;5075740;28;20668;-62
2023/05/28 09:02:16;;;;;;;;;;;18.60;99.90;;;;;;5084305;28;20421;-65
2023/05/28 09:04:45;;;;;;;;;;;18.60;99.90;;;;;;5092882;28;19920;-65
2023/05/28 09:07:12;;;;;;;;;;;18.80;99.90;;;;;;5088396;28;20271;-65
2023/05/28 09:09:37;;;;;;;;;;;18.80;99.90;;;;;;5070594;28;19920;-64
2023/05/28 09:12:05;;;;;;;;;;;18.90;99.90;;;;;;5084826;28;19981;-64
2023/05/28 09:14:36;;;;;;;;;;;18.90;99.90;;;;;;5092642;28;19920;-65
2023/05/28 09:17:02;;;;;;;;;;;19.00;99.90;;;;;;5079196;28;19920;-64
2023/05/28 09:19:28;;;;;;;;;;;19.00;99.00;;;;;;5092111;28;19927;-64
2023/05/28 09:21:56;;;;;;;;;;;19.20;98.80;;;;;;5091938;28;19920;-64
2023/05/28 09:24:22;;;;;;;;;;;19.20;98.70;;;;;;5089927;28;20011;-63
2023/05/28 09:26:48;;;;;;;;;;;19.30;99.50;;;;;;5083229;28;20003;-64
2023/05/28 09:29:14;;;;;;;;;;;19.40;99.60;;;;;;5091979;28;20003;-64
2023/05/28 09:31:39;;;;;;;;;;;19.40;96.60;;;;;;5092547;28;20308;-64
2023/05/28 09:34:05;;;;;;;;;;;19.40;97.20;;;;;;5085370;28;19946;-65
2023/05/28 09:36:31;;;;;;;;;;;19.60;97.70;;;;;;5074009;28;19920;-64
2023/05/28 09:38:57;;;;;;;;;;;19.60;96.80;;;;;;5092180;28;20006;-65
2023/05/28 09:41:23;;;;;;;;;;;19.60;97.90;;;;;;5070288;28;20018;-65
2023/05/28 09:43:59;;;;;;;;;;;19.80;98.10;;;;;;5074077;28;19924;-66
2023/05/28 09:46:29;;;;;;;;;;;19.90;98.20;;;;;;5083727;28;20350;-64
2023/05/28 09:48:54;;;;;;;;;;;20.00;97.40;;;;;;5077325;28;19924;-63
2023/05/28 09:51:20;;;;;;;;;;;20.10;98.60;;;;;;5070692;28;19921;-64
2023/05/28 09:53:46;;;;;;;;;;;20.30;97.50;;;;;;5091121;28;19924;-65
2023/05/28 09:56:13;;;;;;;;;;;20.30;97.10;;;;;;5082871;28;20277;-63
2023/05/28 09:58:39;;;;;;;;;;;20.50;97.00;;;;;;5051575;28;19924;-64
2023/05/28 10:01:08;;;;;;;;;;;20.50;97.00;;;;;;5090376;28;19924;-64
2023/05/28 10:03:36;;;;;;;;;;;20.50;96.90;;;;;;5072384;28;20026;-65
2023/05/28 10:06:04;;;;;;;;;;;20.70;97.90;;;;;;5083262;28;19920;-65
2023/05/28 10:08:31;;;;;;;;;;;20.60;97.30;;;;;;5083745;28;19974;-65
2023/05/28 10:10:56;;;;;;;;;;;20.50;95.70;;;;;;5089907;28;20454;-65
2023/05/28 10:13:22;;;;;;;;;;;20.50;96.40;;;;;;5090359;28;19924;-65
2023/05/28 10:15:48;;;;;;;;;;;20.50;97.00;;;;;;5083589;28;19972;-65
2023/05/28 10:18:16;;;;;;;;;;;20.50;96.40;;;;;;5085498;28;20002;-64
2023/05/28 10:20:42;;;;;;;;;;;20.50;96.30;;;;;;5091703;28;19951;-67
2023/05/28 10:23:08;;;;;;;;;;;20.40;95.80;;;;;;5087685;28;19970;-63
2023/05/28 10:25:34;;;;;;;;;;;20.40;96.30;;;;;;5072757;28;20719;-63
2023/05/28 10:28:03;;;;;;;;;;;20.50;97.20;;;;;;5091880;28;20441;-65
2023/05/28 10:30:32;;;;;;;;;;;20.70;98.10;;;;;;5082078;28;20313;-64
2023/05/28 10:32:57;;;;;;;;;;;20.80;97.20;;;;;;5078041;28;19920;-64
2023/05/28 10:35:23;;;;;;;;;;;20.80;96.40;;;;;;5091613;28;20490;-64
2023/05/28 10:37:48;;;;;;;;;;;20.80;95.80;;;;;;5091492;28;19923;-64
2023/05/28 10:40:23;;;;;;;;;;;20.80;95.40;;;;;;5061277;28;19935;-64
2023/05/28 10:42:49;;;;;;;;;;;20.90;95.70;;;;;;5091115;28;19986;-65
2023/05/28 10:45:14;;;;;;;;;;;20.90;96.20;;;;;;5091333;28;19920;-65
2023/05/28 10:47:41;;;;;;;;;;;21.00;95.70;;;;;;5091751;28;20018;-64
2023/05/28 10:50:10;;;;;;;;;;;21.10;96.20;;;;;;5082173;28;19920;-64
2023/05/28 10:52:36;;;;;;;;;;;21.20;95.00;;;;;;5082873;28;19924;-65
2023/05/28 10:55:07;;;;;;;;;;;21.30;93.60;;;;;;5088896;28;20446;-65
2023/05/28 10:57:47;;;;;;;;;;;21.30;94.60;;;;;;5069315;28;20238;-65
2023/05/28 11:00:13;;;;;;;;;;;21.40;94.00;;;;;;5083116;28;19932;-66
2023/05/28 11:02:41;;;;;;;;;;;21.40;94.10;;;;;;5088058;28;19974;-66
2023/05/28 11:05:06;;;;;;;;;;;21.60;94.80;;;;;;5078062;28;19920;-66
2023/05/28 11:07:33;;;;;;;;;;;21.60;94.20;;;;;;5070520;28;19927;-66
2023/05/28 11:09:59;;;;;;;;;;;21.70;93.70;;;;;;5092763;28;19959;-66
2023/05/28 11:12:25;;;;;;;;;;;21.80;92.90;;;;;;5088260;28;19966;-65
2023/05/28 11:14:51;;;;;;;;;;;22.00;94.10;;;;;;5084002;28;20422;-66
2023/05/28 11:17:17;;;;;;;;;;;21.80;92.40;;;;;;5076719;28;20003;-61
2023/05/28 11:19:44;;;;;;;;;;;22.00;93.10;;;;;;5090526;28;19924;-65
2023/05/28 11:22:10;;;;;;;;;;;22.00;92.40;;;;;;5073879;28;19927;-64
2023/05/28 11:24:54;;;;;;;;;;;22.00;93.30;;;;;;5084479;28;19923;-65
2023/05/28 11:27:23;;;;;;;;;;;21.90;91.20;;;;;;5084826;28;19924;-63
2023/05/28 11:29:49;;;;;;;;;;;21.90;91.60;;;;;;5071319;28;19978;-63
2023/05/28 11:32:17;;;;;;;;;;;21.90;91.20;;;;;;5072505;28;19938;-66
2023/05/28 11:34:42;;;;;;;;;;;22.10;91.10;;;;;;5085375;28;20732;-66
2023/05/28 11:37:08;;;;;;;;;;;22.20;91.30;;;;;;5088924;28;19927;-65
2023/05/28 11:39:39;;;;;;;;;;;22.30;90.80;;;;;;5083598;28;19974;-66
2023/05/28 11:42:07;;;;;;;;;;;22.30;90.00;;;;;;5066776;28;19928;-65
2023/05/28 11:44:32;;;;;;;;;;;22.50;90.40;;;;;;5092384;28;19965;-65
2023/05/28 11:46:58;;;;;;;;;;;22.30;88.00;;;;;;5079762;28;19928;-65
2023/05/28 11:49:24;;;;;;;;;;;22.40;87.50;;;;;;5090115;28;19924;-65
2023/05/28 11:51:50;;;;;;;;;;;22.50;87.60;;;;;;5092852;28;20007;-65
2023/05/28 11:54:15;;;;;;;;;;;22.50;90.00;;;;;;5092769;28;19999;-65
2023/05/28 11:56:41;;;;;;;;;;;22.50;85.50;;;;;;5081214;28;20309;-66
2023/05/28 11:59:06;;;;;;;;;;;22.40;83.80;;;;;;5091499;28;20007;-64
2023/05/28 12:01:35;;;;;;;;;;;22.40;86.90;;;;;;5092672;28;20639;-65
2023/05/28 12:04:06;;;;;;;;;;;22.50;85.70;;;;;;5086595;28;20667;-65
2023/05/28 12:06:33;;;;;;;;;;;22.50;85.60;;;;;;5089333;28;20298;-66
2023/05/28 12:09:02;;;;;;;;;;;22.60;87.20;;;;;;5092572;28;20303;-65
2023/05/28 12:11:28;;;;;;;;;;;22.60;80.80;;;;;;5079353;28;20470;-66
2023/05/28 12:13:53;;;;;;;;;;;22.70;80.00;;;;;;5087339;28;19920;-65
2023/05/28 12:16:19;;;;;;;;;;;22.80;82.30;;;;;;5092285;28;19924;-66
2023/05/28 12:18:44;;;;;;;;;;;22.80;80.40;;;;;;5089377;28;19936;-66
2023/05/28 12:21:18;;;;;;;;;;;22.80;79.10;;;;;;5091366;28;20026;-65
2023/05/28 12:23:44;;;;;;;;;;;22.80;76.20;;;;;;5075425;28;20413;-64
2023/05/28 12:26:13;;;;;;;;;;;22.90;75.40;;;;;;5093836;28;20328;-65
2023/05/28 12:28:40;;;;;;;;;;;23.00;73.90;;;;;;5088269;28;19924;-64
2023/05/28 12:31:06;;;;;;;;;;;23.30;78.30;;;;;;5085228;28;19924;-64
2023/05/28 12:33:32;;;;;;;;;;;23.40;76.30;;;;;;5093433;28;19920;-63
2023/05/28 12:35:59;;;;;;;;;;;23.50;77.60;;;;;;5068769;28;20298;-65
2023/05/28 12:38:25;;;;;;;;;;;23.50;75.60;;;;;;5086879;28;19933;-64
2023/05/28 12:40:50;;;;;;;;;;;23.40;67.60;;;;;;5090412;28;20327;-62
2023/05/28 12:43:16;;;;;;;;;;;23.30;67.50;;;;;;5084906;28;20258;-64
2023/05/28 12:45:42;;;;;;;;;;;23.30;67.20;;;;;;5072650;28;19920;-64
2023/05/28 12:48:08;;;;;;;;;;;23.50;69.80;;;;;;5084490;28;19920;-65
2023/05/28 12:50:34;;;;;;;;;;;23.60;68.30;;;;;;5093208;28;20523;-65
2023/05/28 12:52:59;;;;;;;;;;;23.60;66.50;;;;;;5084410;28;19924;-65
2023/05/28 12:55:25;;;;;;;;;;;23.90;67.20;;;;;;5083740;28;19920;-65
2023/05/28 12:57:51;;;;;;;;;;;23.70;61.50;;;;;;5083552;28;19920;-65
2023/05/28 13:00:17;;;;;;;;;;;23.80;65.40;;;;;;5084083;28;20086;-65
2023/05/28 13:02:42;;;;;;;;;;;23.80;63.60;;;;;;5073614;28;19931;-63
2023/05/28 13:05:08;;;;;;;;;;;23.90;61.90;;;;;;5071056;28;20401;-65
2023/05/28 13:07:34;;;;;;;;;;;23.80;57.40;;;;;;5067298;28;19920;-65
2023/05/28 13:09:59;;;;;;;;;;;23.90;57.90;;;;;;5083130;28;19924;-64
2023/05/28 13:12:25;;;;;;;;;;;23.90;57.60;;;;;;5080536;28;19928;-65
2023/05/28 13:14:51;;;;;;;;;;;24.00;58.30;;;;;;5077653;28;19920;-63
2023/05/28 13:17:16;;;;;;;;;;;24.00;56.80;;;;;;5074527;28;20027;-64
2023/05/28 13:19:42;;;;;;;;;;;24.10;57.30;;;;;;5069407;28;20328;-64
2023/05/28 13:22:10;;;;;;;;;;;24.10;58.00;;;;;;5066824;28;19920;-65
2023/05/28 13:24:38;;;;;;;;;;;24.20;54.40;;;;;;5070369;28;20433;-63
2023/05/28 13:27:04;;;;;;;;;;;24.40;59.60;;;;;;5072108;28;19946;-62
2023/05/28 13:29:29;;;;;;;;;;;24.40;58.00;;;;;;5070071;28;20378;-63
2023/05/28 13:31:55;;;;;;;;;;;24.40;58.40;;;;;;5081315;28;19926;-64
2023/05/28 13:34:20;;;;;;;;;;;24.50;56.50;;;;;;5079160;28;19924;-65
2023/05/28 13:36:46;;;;;;;;;;;24.60;56.00;;;;;;5080264;28;19920;-64
2023/05/28 13:39:11;;;;;;;;;;;24.30;51.50;;;;;;5073239;28;19970;-65
2023/05/28 13:41:37;;;;;;;;;;;24.60;60.40;;;;;;5080577;28;19928;-65
2023/05/28 13:44:02;;;;;;;;;;;24.50;55.40;;;;;;5076101;28;19973;-64
2023/05/28 13:46:28;;;;;;;;;;;24.60;55.50;;;;;;5078851;28;19921;-64
2023/05/28 13:48:53;;;;;;;;;;;24.80;56.20;;;;;;5080980;28;19920;-65
2023/05/28 13:51:19;;;;;;;;;;;24.70;57.10;;;;;;5084614;28;19924;-65
2023/05/28 13:53:45;;;;;;;;;;;24.70;54.60;;;;;;5078565;28;20010;-64
2023/05/28 13:56:12;;;;;;;;;;;24.80;55.20;;;;;;5079522;28;19927;-63
2023/05/28 13:58:37;;;;;;;;;;;25.00;55.20;;;;;;5056328;28;19927;-65
2023/05/28 14:01:03;;;;;;;;;;;25.10;53.70;;;;;;5073819;28;20019;-62
2023/05/28 14:03:30;;;;;;;;;;;25.20;55.70;;;;;;5052096;28;20170;-62
2023/05/28 14:05:56;;;;;;;;;;;25.30;55.60;;;;;;5069690;28;20319;-64
2023/05/28 14:08:22;;;;;;;;;;;25.50;55.40;;;;;;5035675;28;19935;-62
2023/05/28 14:10:48;;;;;;;;;;;25.80;56.30;;;;;;5081302;28;19928;-65